Time;durP1;ratioP1;P1;durP2;ratioP2;P2;SDS_P1;SDS_P2;PMS_P1;PMS_P2;Temp;Humidity;BMP_temperature;BMP_pressure;BME280_temperature;BME280_humidity;BME280_pressure;Samples;Min_cycle;Max_cycle;Signal;HPM_P1;HPM_P2
2021/10/22 00:00:21;;;;;;;;;;;;;;;;;;5133741;27;19923;-71
2021/10/22 00:02:47;;;;;;;;;;;;;;;;;;5133792;27;19923;-71
2021/10/22 00:05:13;;;;;;;;;;;;;;;;;;5134476;27;19924;-71
2021/10/22 00:07:40;;;;;;;;;;;;;;;;;;5134369;27;20352;-71
2021/10/22 00:10:06;;;;;;;;;;;;;;;;;;5134612;27;19924;-71
2021/10/22 00:12:32;;;;;;;;;;;;;;;;;;5134266;27;19927;-71
2021/10/22 00:14:58;;;;;;;;;;;;;;;;;;5134128;27;20403;-72
2021/10/22 00:17:25;;;;;;;;;;;;;;;;;;5134214;27;19923;-72
2021/10/22 00:19:51;;;;;;;;;;;;;;;;;;5134448;27;20293;-72
2021/10/22 00:22:17;;;;;;;;;;;;;;;;;;5133732;27;19930;-71
2021/10/22 00:24:44;;;;;;;;;;;;;;;;;;5134320;27;19923;-71
2021/10/22 00:27:11;;;;;;;;;;;;;;;;;;5133765;27;19923;-72
2021/10/22 00:29:37;;;;;;;;;;;;;;;;;;5134034;27;20337;-71
2021/10/22 00:32:03;;;;;;;;;;;;;;;;;;5133770;27;19931;-71
2021/10/22 00:34:31;;;;;;;;;;;;;;;;;;5133944;27;19927;-72
2021/10/22 00:36:57;;;;;;;;;;;;;;;;;;5133860;27;19930;-72
2021/10/22 00:39:23;;;;;;;;;;;;;;;;;;5133371;27;19973;-72
2021/10/22 00:41:50;;;;;;;;;;;;;;;;;;5134048;27;19931;-72
2021/10/22 00:44:16;;;;;;;;;;;;;;;;;;5133779;27;19923;-72
2021/10/22 00:46:43;;;;;;;;;;;;;;;;;;5133710;27;20373;-72
2021/10/22 00:49:09;;;;;;;;;;;;;;;;;;5133659;27;19923;-72
2021/10/22 00:51:35;;;;;;;;;;;;;;;;;;5133902;27;19923;-72
2021/10/22 00:54:02;;;;;;;;;;;;;;;;;;5133512;27;19924;-72
2021/10/22 00:56:28;;;;;;;;;;;;;;;;;;5133634;27;19923;-72
2021/10/22 00:58:54;;;;;;;;;;;;;;;;;;5133285;27;20365;-72
2021/10/22 01:01:21;;;;;;;;;;;;;;;;;;5133221;27;19924;-72
2021/10/22 01:03:47;;;;;;;;;;;;;;;;;;5133741;27;19929;-72
2021/10/22 01:06:14;;;;;;;;;;;;;;;;;;5133087;27;19927;-72
2021/10/22 01:08:40;;;;;;;;;;;;;;;;;;5133735;27;19924;-72
2021/10/22 01:11:06;;;;;;;;;;;;;;;;;;5133728;28;20294;-72
2021/10/22 01:13:32;;;;;;;;;;;;;;;;;;5138443;27;19923;-72
2021/10/22 01:15:59;;;;;;;;;;;;;;;;;;5140606;27;19923;-72
2021/10/22 01:18:26;;;;;;;;;;;;;;;;;;5139849;27;20293;-72
2021/10/22 01:20:53;;;;;;;;;;;;;;;;;;5140539;27;19923;-72
2021/10/22 01:23:22;;;;;;;;;;;;;;;;;;5140246;27;19930;-72
2021/10/22 01:25:49;;;;;;;;;;;;;;;;;;5140484;27;19930;-72
2021/10/22 01:28:15;;;;;;;;;;;;;;;;;;5139726;27;20392;-72
2021/10/22 01:30:42;;;;;;;;;;;;;;;;;;5140135;27;19923;-72
2021/10/22 01:33:08;;;;;;;;;;;;;;;;;;5140141;27;19930;-72
2021/10/22 01:35:34;;;;;;;;;;;;;;;;;;5140144;27;19963;-72
2021/10/22 01:38:02;;;;;;;;;;;;;;;;;;5140261;27;19924;-72
2021/10/22 01:40:28;;;;;;;;;;;;;;;;;;5140107;27;20431;-72
2021/10/22 01:42:55;;;;;;;;;;;;;;;;;;5140113;27;19931;-72
2021/10/22 01:45:21;;;;;;;;;;;;;;;;;;5139791;27;20472;-72
2021/10/22 01:47:48;;;;;;;;;;;;;;;;;;5139998;27;19924;-72
2021/10/22 01:50:15;;;;;;;;;;;;;;;;;;5139590;27;20317;-71
2021/10/22 01:52:41;;;;;;;;;;;;;;;;;;5139941;27;19931;-71
2021/10/22 01:55:08;;;;;;;;;;;;;;;;;;5140204;27;19923;-71
2021/10/22 01:57:35;;;;;;;;;;;;;;;;;;5139952;27;20025;-72
2021/10/22 02:00:01;;;;;;;;;;;;;;;;;;5139717;27;19957;-72
2021/10/22 02:02:27;;;;;;;;;;;;;;;;;;5139563;27;19923;-72
2021/10/22 02:04:54;;;;;;;;;;;;;;;;;;5140001;27;19927;-72
2021/10/22 02:07:20;;;;;;;;;;;;;;;;;;5139433;27;20293;-72
2021/10/22 02:09:46;;;;;;;;;;;;;;;;;;5139652;27;19923;-72
2021/10/22 02:12:13;;;;;;;;;;;;;;;;;;5139809;27;19923;-72
2021/10/22 02:14:39;;;;;;;;;;;;;;;;;;5139600;27;20369;-72
2021/10/22 02:17:05;;;;;;;;;;;;;;;;;;5139614;27;19924;-71
2021/10/22 02:19:31;;;;;;;;;;;;;;;;;;5139632;27;19923;-71
2021/10/22 02:21:58;;;;;;;;;;;;;;;;;;5139639;27;20514;-72
2021/10/22 02:24:24;;;;;;;;;;;;;;;;;;5136590;27;19927;-72
2021/10/22 02:26:50;;;;;;;;;;;;;;;;;;5136597;27;19923;-72
2021/10/22 02:29:17;;;;;;;;;;;;;;;;;;5135954;27;19923;-72
2021/10/22 02:31:44;;;;;;;;;;;;;;;;;;5136571;27;19934;-71
2021/10/22 02:34:10;;;;;;;;;;;;;;;;;;5135895;27;19930;-72
2021/10/22 02:36:36;;;;;;;;;;;;;;;;;;5136459;27;19932;-72
2021/10/22 02:39:03;;;;;;;;;;;;;;;;;;5136363;27;19930;-72
2021/10/22 02:41:29;;;;;;;;;;;;;;;;;;5135836;27;19931;-72
2021/10/22 02:43:55;;;;;;;;;;;;;;;;;;5135924;27;19923;-72
2021/10/22 02:46:21;;;;;;;;;;;;;;;;;;5136087;27;19924;-72
2021/10/22 02:48:48;;;;;;;;;;;;;;;;;;5135866;27;19938;-72
2021/10/22 02:51:14;;;;;;;;;;;;;;;;;;5135938;27;19935;-71
2021/10/22 02:53:40;;;;;;;;;;;;;;;;;;5136122;27;19923;-72
2021/10/22 02:56:07;;;;;;;;;;;;;;;;;;5136102;27;19924;-72
2021/10/22 02:58:33;;;;;;;;;;;;;;;;;;5135208;27;19923;-73
2021/10/22 03:00:59;;;;;;;;;;;;;;;;;;5135937;27;19924;-73
2021/10/22 03:03:26;;;;;;;;;;;;;;;;;;5135353;27;20293;-72
2021/10/22 03:05:52;;;;;;;;;;;;;;;;;;5135579;27;19930;-73
2021/10/22 03:08:18;;;;;;;;;;;;;;;;;;5135644;27;19924;-72
2021/10/22 03:10:44;;;;;;;;;;;;;;;;;;5135416;27;20412;-73
2021/10/22 03:13:11;;;;;;;;;;;;;;;;;;5136491;27;19924;-72
2021/10/22 03:15:37;;;;;;;;;;;;;;;;;;5144227;27;20017;-70
2021/10/22 03:18:03;;;;;;;;;;;;;;;;;;5136127;27;19930;-72
2021/10/22 03:20:31;;;;;;;;;;;;;;;;;;5135310;27;19927;-72
2021/10/22 03:22:57;;;;;;;;;;;;;;;;;;5135593;27;19927;-72
2021/10/22 03:25:23;;;;;;;;;;;;;;;;;;5135195;27;19946;-72
2021/10/22 03:27:50;;;;;;;;;;;;;;;;;;5135199;27;19927;-72
2021/10/22 03:30:16;;;;;;;;;;;;;;;;;;5135143;27;19931;-72
2021/10/22 03:32:42;;;;;;;;;;;;;;;;;;5135023;27;20380;-72
2021/10/22 03:35:09;;;;;;;;;;;;;;;;;;5135215;27;19923;-72
2021/10/22 03:37:35;;;;;;;;;;;;;;;;;;5135150;27;19934;-72
2021/10/22 03:40:01;;;;;;;;;;;;;;;;;;5134842;27;19923;-72
2021/10/22 03:42:29;;;;;;;;;;;;;;;;;;5134542;27;19930;-72
2021/10/22 03:44:55;;;;;;;;;;;;;;;;;;5134888;27;19927;-72
2021/10/22 03:47:22;;;;;;;;;;;;;;;;;;5134786;27;19930;-72
2021/10/22 03:49:49;;;;;;;;;;;;;;;;;;5134957;27;19923;-72
2021/10/22 03:52:15;;;;;;;;;;;;;;;;;;5134471;27;19927;-72
2021/10/22 03:54:41;;;;;;;;;;;;;;;;;;5134956;27;19923;-72
2021/10/22 03:57:08;;;;;;;;;;;;;;;;;;5134777;27;19930;-72
2021/10/22 03:59:34;;;;;;;;;;;;;;;;;;5133961;27;20518;-72
2021/10/22 04:02:01;;;;;;;;;;;;;;;;;;5134434;27;19924;-72
2021/10/22 04:04:29;;;;;;;;;;;;;;;;;;5134499;27;19924;-71
2021/10/22 04:06:56;;;;;;;;;;;;;;;;;;5134386;27;20011;-71
2021/10/22 04:09:23;;;;;;;;;;;;;;;;;;5134391;27;19924;-71
2021/10/22 04:11:49;;;;;;;;;;;;;;;;;;5134162;27;20377;-73
2021/10/22 04:14:15;;;;;;;;;;;;;;;;;;5133899;27;19927;-71
2021/10/22 04:16:41;;;;;;;;;;;;;;;;;;5135060;27;19923;-71
2021/10/22 04:19:08;;;;;;;;;;;;;;;;;;5134096;27;19923;-73
2021/10/22 04:21:34;;;;;;;;;;;;;;;;;;5134107;27;19924;-72
2021/10/22 04:24:01;;;;;;;;;;;;;;;;;;5134360;27;19923;-70
2021/10/22 04:26:27;;;;;;;;;;;;;;;;;;5133753;27;19924;-69
2021/10/22 04:28:53;;;;;;;;;;;;;;;;;;5133986;27;19924;-70
2021/10/22 04:31:20;;;;;;;;;;;;;;;;;;5134026;27;19946;-69
2021/10/22 04:33:46;;;;;;;;;;;;;;;;;;5133969;27;19935;-70
2021/10/22 04:36:13;;;;;;;;;;;;;;;;;;5133810;27;19930;-69
2021/10/22 04:41:23;;;;;;;;;;;;;;;;;;5133704;27;19969;-69
2021/10/22 04:43:49;;;;;;;;;;;;;;;;;;5134063;27;19930;-70
2021/10/22 04:46:16;;;;;;;;;;;;;;;;;;5133408;27;20285;-70
2021/10/22 04:48:42;;;;;;;;;;;;;;;;;;5133015;27;19924;-72
2021/10/22 04:51:08;;;;;;;;;;;;;;;;;;5134007;27;20326;-72
2021/10/22 04:53:35;;;;;;;;;;;;;;;;;;5133700;27;20066;-73
2021/10/22 04:56:02;;;;;;;;;;;;;;;;;;5133637;27;19930;-74
2021/10/22 04:58:28;;;;;;;;;;;;;;;;;;5132962;27;20505;-70
2021/10/22 05:00:54;;;;;;;;;;;;;;;;;;5133479;27;19923;-69
2021/10/22 05:03:20;;;;;;;;;;;;;;;;;;5133461;27;19946;-69
2021/10/22 05:05:47;;;;;;;;;;;;;;;;;;5133150;27;19931;-69
2021/10/22 05:08:13;;;;;;;;;;;;;;;;;;5131860;27;19924;-69
2021/10/22 05:10:39;;;;;;;;;;;;;;;;;;5133741;27;20292;-69
2021/10/22 05:13:06;;;;;;;;;;;;;;;;;;5133103;28;19934;-70
2021/10/22 05:15:32;;;;;;;;;;;;;;;;;;5133404;28;19923;-70
2021/10/22 05:17:58;;;;;;;;;;;;;;;;;;5133232;28;20373;-70
2021/10/22 05:20:25;;;;;;;;;;;;;;;;;;5133288;28;19930;-70
2021/10/22 05:22:51;;;;;;;;;;;;;;;;;;5133912;28;19946;-70
2021/10/22 05:25:18;;;;;;;;;;;;;;;;;;5133010;28;19923;-71
2021/10/22 05:27:44;;;;;;;;;;;;;;;;;;5133546;28;20098;-71
2021/10/22 05:30:10;;;;;;;;;;;;;;;;;;5133013;28;19930;-69
2021/10/22 05:32:37;;;;;;;;;;;;;;;;;;5133502;28;19930;-70
2021/10/22 05:35:03;;;;;;;;;;;;;;;;;;5133236;28;19923;-70
2021/10/22 05:37:29;;;;;;;;;;;;;;;;;;5132952;28;19924;-69
2021/10/22 05:39:57;;;;;;;;;;;;;;;;;;5133205;28;20005;-69
2021/10/22 05:42:23;;;;;;;;;;;;;;;;;;5133228;28;19923;-69
2021/10/22 05:44:49;;;;;;;;;;;;;;;;;;5133424;28;19923;-69
2021/10/22 05:47:16;;;;;;;;;;;;;;;;;;5132827;28;19927;-69
2021/10/22 05:49:43;;;;;;;;;;;;;;;;;;5132980;28;20392;-69
2021/10/22 05:52:10;;;;;;;;;;;;;;;;;;5133275;27;20323;-70
2021/10/22 05:54:36;;;;;;;;;;;;;;;;;;5133305;28;19950;-70
2021/10/22 05:57:02;;;;;;;;;;;;;;;;;;5132965;28;19923;-70
2021/10/22 05:59:28;;;;;;;;;;;;;;;;;;5133417;27;19924;-70
2021/10/22 06:01:56;;;;;;;;;;;;;;;;;;5136748;27;20369;-70
2021/10/22 06:04:22;;;;;;;;;;;;;;;;;;5136791;27;19939;-70
2021/10/22 06:06:48;;;;;;;;;;;;;;;;;;5136724;27;20385;-70
2021/10/22 06:09:15;;;;;;;;;;;;;;;;;;5136510;27;19941;-70
2021/10/22 06:11:41;;;;;;;;;;;;;;;;;;5136696;27;19970;-70
2021/10/22 06:14:07;;;;;;;;;;;;;;;;;;5136481;27;19929;-70
2021/10/22 06:16:34;;;;;;;;;;;;;;;;;;5136675;27;19930;-70
2021/10/22 06:19:02;;;;;;;;;;;;;;;;;;5136466;27;19923;-70
2021/10/22 06:21:29;;;;;;;;;;;;;;;;;;5136204;27;19923;-70
2021/10/22 06:23:59;;;;;;;;;;;;;;;;;;5136722;27;19924;-70
2021/10/22 06:26:26;;;;;;;;;;;;;;;;;;5136493;27;19923;-69
2021/10/22 06:28:52;;;;;;;;;;;;;;;;;;5136141;27;19968;-70
2021/10/22 06:31:18;;;;;;;;;;;;;;;;;;5136393;27;19930;-70
2021/10/22 06:33:45;;;;;;;;;;;;;;;;;;5136201;27;20373;-70
2021/10/22 06:36:11;;;;;;;;;;;;;;;;;;5136004;27;20373;-70
2021/10/22 06:38:37;;;;;;;;;;;;;;;;;;5136341;27;19934;-70
2021/10/22 06:41:04;;;;;;;;;;;;;;;;;;5136044;27;20300;-70
2021/10/22 06:43:30;;;;;;;;;;;;;;;;;;5136041;27;19928;-70
2021/10/22 06:45:56;;;;;;;;;;;;;;;;;;5136007;27;19942;-70
2021/10/22 06:48:23;;;;;;;;;;;;;;;;;;5135955;27;19929;-70
2021/10/22 06:50:49;;;;;;;;;;;;;;;;;;5136235;27;20285;-70
2021/10/22 06:53:15;;;;;;;;;;;;;;;;;;5135646;27;20449;-70
2021/10/22 06:55:42;;;;;;;;;;;;;;;;;;5135636;27;19923;-70
2021/10/22 06:58:08;;;;;;;;;;;;;;;;;;5136087;27;19931;-70
2021/10/22 07:00:34;;;;;;;;;;;;;;;;;;5135297;27;20281;-70
2021/10/22 07:03:02;;;;;;;;;;;;;;;;;;5134784;27;20217;-70
2021/10/22 07:05:52;;;;;;;;;;;;;;;;;;5135584;27;19923;-70
2021/10/22 07:08:17;;;;;;;;;;;;;;;;;;5135359;27;19923;-69
2021/10/22 07:10:44;;;;;;;;;;;;;;;;;;5135463;27;19919;-69
2021/10/22 07:13:11;;;;;;;;;;;;;;;;;;5135456;27;20026;-69
2021/10/22 07:15:37;;;;;;;;;;;;;;;;;;5135805;27;19928;-70
2021/10/22 07:18:04;;;;;;;;;;;;;;;;;;5135686;27;19930;-70
2021/10/22 07:20:30;;;;;;;;;;;;;;;;;;5135037;27;20476;-69
2021/10/22 07:23:03;;;;;;;;;;;;;;;;;;5135291;27;19967;-70
2021/10/22 07:25:29;;;;;;;;;;;;;;;;;;5135341;27;19976;-70
2021/10/22 07:27:55;;;;;;;;;;;;;;;;;;5135530;27;19924;-70
2021/10/22 07:30:22;;;;;;;;;;;;;;;;;;5134888;27;20377;-70
2021/10/22 07:32:48;;;;;;;;;;;;;;;;;;5135503;27;19923;-69
2021/10/22 07:35:14;;;;;;;;;;;;;;;;;;5135100;27;19927;-69
2021/10/22 07:37:41;;;;;;;;;;;;;;;;;;5135245;27;19929;-70
2021/10/22 07:40:07;;;;;;;;;;;;;;;;;;5135219;27;19934;-69
2021/10/22 07:42:34;;;;;;;;;;;;;;;;;;5135014;27;20012;-70
2021/10/22 07:45:00;;;;;;;;;;;;;;;;;;5134742;27;19972;-70
2021/10/22 07:47:26;;;;;;;;;;;;;;;;;;5134928;27;19930;-70
2021/10/22 07:49:53;;;;;;;;;;;;;;;;;;5134682;27;19930;-70
2021/10/22 07:52:19;;;;;;;;;;;;;;;;;;5134427;27;19929;-69
2021/10/22 07:54:45;;;;;;;;;;;;;;;;;;5134666;27;19966;-70
2021/10/22 07:57:12;;;;;;;;;;;;;;;;;;5134242;27;20026;-70
2021/10/22 07:59:38;;;;;;;;;;;;;;;;;;5134404;27;20095;-70
2021/10/22 08:02:04;;;;;;;;;;;;;;;;;;5134535;27;19930;-70
2021/10/22 08:04:31;;;;;;;;;;;;;;;;;;5134540;27;19928;-70
2021/10/22 08:06:57;;;;;;;;;;;;;;;;;;5134390;27;20386;-70
2021/10/22 08:09:23;;;;;;;;;;;;;;;;;;5134032;27;19924;-70
2021/10/22 08:11:50;;;;;;;;;;;;;;;;;;5134348;27;19930;-70
2021/10/22 08:14:17;;;;;;;;;;;;;;;;;;5134041;27;20332;-70
2021/10/22 08:16:43;;;;;;;;;;;;;;;;;;5134303;27;19945;-69
2021/10/22 08:19:09;;;;;;;;;;;;;;;;;;5134464;27;19968;-70
2021/10/22 08:21:57;;;;;;;;;;;;;;;;;;5133817;27;19923;-70
2021/10/22 08:24:23;;;;;;;;;;;;;;;;;;5133903;27;19923;-70
2021/10/22 08:26:49;;;;;;;;;;;;;;;;;;5134042;27;20434;-70
2021/10/22 08:29:16;;;;;;;;;;;;;;;;;;5133696;27;19929;-70
2021/10/22 08:31:42;;;;;;;;;;;;;;;;;;5134245;27;19923;-70
2021/10/22 08:34:08;;;;;;;;;;;;;;;;;;5133992;27;20388;-70
2021/10/22 08:36:34;;;;;;;;;;;;;;;;;;5133919;27;19923;-70
2021/10/22 08:39:01;;;;;;;;;;;;;;;;;;5134069;27;19924;-70
2021/10/22 08:41:27;;;;;;;;;;;;;;;;;;5133765;27;19931;-70
2021/10/22 08:43:54;;;;;;;;;;;;;;;;;;5133735;27;20396;-70
2021/10/22 08:46:22;;;;;;;;;;;;;;;;;;5133444;27;20025;-70
2021/10/22 08:48:48;;;;;;;;;;;;;;;;;;5133886;27;19931;-70
2021/10/22 08:51:18;;;;;;;;;;;;;;;;;;5133412;27;20293;-69
2021/10/22 08:53:44;;;;;;;;;;;;;;;;;;5133492;27;19923;-70
2021/10/22 08:56:11;;;;;;;;;;;;;;;;;;5133658;27;19923;-70
2021/10/22 08:58:37;;;;;;;;;;;;;;;;;;5133262;27;20440;-70
2021/10/22 09:01:03;;;;;;;;;;;;;;;;;;5133488;27;19924;-70
2021/10/22 09:03:30;;;;;;;;;;;;;;;;;;5133612;27;19934;-70
2021/10/22 09:05:56;;;;;;;;;;;;;;;;;;5133356;27;20391;-70
2021/10/22 09:08:23;;;;;;;;;;;;;;;;;;5133187;27;19931;-70
2021/10/22 09:10:49;;;;;;;;;;;;;;;;;;5134110;27;19924;-69
2021/10/22 09:13:17;;;;;;;;;;;;;;;;;;5133202;28;19935;-69
2021/10/22 09:15:43;;;;;;;;;;;;;;;;;;5133343;28;19930;-69
2021/10/22 09:18:10;;;;;;;;;;;;;;;;;;5133369;28;19946;-69
2021/10/22 09:20:37;;;;;;;;;;;;;;;;;;5133343;28;19935;-69
2021/10/22 09:23:03;;;;;;;;;;;;;;;;;;5133635;28;19927;-69
2021/10/22 09:25:30;;;;;;;;;;;;;;;;;;5132896;28;19928;-69
2021/10/22 09:27:56;;;;;;;;;;;;;;;;;;5133633;28;20181;-69
2021/10/22 09:30:23;;;;;;;;;;;;;;;;;;5132989;28;19931;-69
2021/10/22 09:32:49;;;;;;;;;;;;;;;;;;5133172;27;19930;-70
2021/10/22 09:35:15;;;;;;;;;;;;;;;;;;5137754;27;19927;-70
2021/10/22 09:37:42;;;;;;;;;;;;;;;;;;5137270;27;19931;-70
2021/10/22 09:40:08;;;;;;;;;;;;;;;;;;5137553;27;19923;-70
2021/10/22 09:42:37;;;;;;;;;;;;;;;;;;5137343;27;19924;-70
2021/10/22 09:45:03;;;;;;;;;;;;;;;;;;5137514;27;19965;-70
2021/10/22 09:47:29;;;;;;;;;;;;;;;;;;5137263;27;19946;-70
2021/10/22 09:49:56;;;;;;;;;;;;;;;;;;5137060;27;20335;-70
2021/10/22 09:52:23;;;;;;;;;;;;;;;;;;5137133;27;19923;-70
2021/10/22 09:54:49;;;;;;;;;;;;;;;;;;5137390;27;19930;-70
2021/10/22 09:57:15;;;;;;;;;;;;;;;;;;5136771;27;20389;-70
2021/10/22 09:59:42;;;;;;;;;;;;;;;;;;5136591;27;19930;-70
2021/10/22 10:02:08;;;;;;;;;;;;;;;;;;5137195;27;19928;-70
2021/10/22 10:04:34;;;;;;;;;;;;;;;;;;5136809;27;19931;-70
2021/10/22 10:07:00;;;;;;;;;;;;;;;;;;5136833;27;20254;-70
2021/10/22 10:09:28;;;;;;;;;;;;;;;;;;5136506;27;19923;-70
2021/10/22 10:11:54;;;;;;;;;;;;;;;;;;5136668;27;19924;-70
2021/10/22 10:14:23;;;;;;;;;;;;;;;;;;5136362;27;19930;-70
2021/10/22 10:16:49;;;;;;;;;;;;;;;;;;5136932;27;19977;-70
2021/10/22 10:19:15;;;;;;;;;;;;;;;;;;5136281;27;20301;-70
2021/10/22 10:21:42;;;;;;;;;;;;;;;;;;5136341;27;19993;-70
2021/10/22 10:24:08;;;;;;;;;;;;;;;;;;5136765;27;19928;-70
2021/10/22 10:26:35;;;;;;;;;;;;;;;;;;5136422;27;19924;-70
2021/10/22 10:29:01;;;;;;;;;;;;;;;;;;5136371;27;20297;-70
2021/10/22 10:31:28;;;;;;;;;;;;;;;;;;5136422;27;19927;-70
2021/10/22 10:33:55;;;;;;;;;;;;;;;;;;5136518;27;19975;-70
2021/10/22 10:36:21;;;;;;;;;;;;;;;;;;5136169;27;20022;-70
2021/10/22 10:38:47;;;;;;;;;;;;;;;;;;5136424;27;19928;-70
2021/10/22 10:41:14;;;;;;;;;;;;;;;;;;5136091;27;19976;-70
2021/10/22 10:43:41;;;;;;;;;;;;;;;;;;5135958;27;19923;-70
2021/10/22 10:46:07;;;;;;;;;;;;;;;;;;5135492;27;19931;-70
2021/10/22 10:48:33;;;;;;;;;;;;;;;;;;5136022;27;20373;-70
2021/10/22 10:51:03;;;;;;;;;;;;;;;;;;5135857;27;19923;-70
2021/10/22 10:53:31;;;;;;;;;;;;;;;;;;5135674;27;19942;-70
2021/10/22 10:55:57;;;;;;;;;;;;;;;;;;5135758;27;19923;-70
2021/10/22 10:58:23;;;;;;;;;;;;;;;;;;5135413;27;19930;-70
2021/10/22 11:00:50;;;;;;;;;;;;;;;;;;5135898;27;19930;-70
2021/10/22 11:03:16;;;;;;;;;;;;;;;;;;5135653;27;19974;-69
2021/10/22 11:05:43;;;;;;;;;;;;;;;;;;5135785;27;19927;-70
2021/10/22 11:08:09;;;;;;;;;;;;;;;;;;5135786;27;19923;-70
2021/10/22 11:10:35;;;;;;;;;;;;;;;;;;5135585;27;19924;-70
2021/10/22 11:13:01;;;;;;;;;;;;;;;;;;5135839;27;19924;-70
2021/10/22 11:15:28;;;;;;;;;;;;;;;;;;5135408;27;20027;-70
2021/10/22 11:17:54;;;;;;;;;;;;;;;;;;5135346;27;19923;-70
2021/10/22 11:20:20;;;;;;;;;;;;;;;;;;5135383;27;19923;-70
2021/10/22 11:22:47;;;;;;;;;;;;;;;;;;5135333;27;19924;-70
2021/10/22 11:25:17;;;;;;;;;;;;;;;;;;5135229;27;19931;-70
2021/10/22 11:27:43;;;;;;;;;;;;;;;;;;5136001;27;19923;-70
2021/10/22 11:30:10;;;;;;;;;;;;;;;;;;5136481;27;20011;-70
2021/10/22 11:32:36;;;;;;;;;;;;;;;;;;5135686;27;20377;-70
2021/10/22 11:35:03;;;;;;;;;;;;;;;;;;5135007;27;19923;-70
2021/10/22 11:37:30;;;;;;;;;;;;;;;;;;5135075;27;20413;-70
2021/10/22 11:39:57;;;;;;;;;;;;;;;;;;5135030;27;19924;-70
2021/10/22 11:42:27;;;;;;;;;;;;;;;;;;5134921;27;19923;-70
2021/10/22 11:44:55;;;;;;;;;;;;;;;;;;5134816;27;20026;-70
2021/10/22 11:47:21;;;;;;;;;;;;;;;;;;5134584;27;19931;-70
2021/10/22 11:49:48;;;;;;;;;;;;;;;;;;5135136;27;19931;-70
2021/10/22 11:52:14;;;;;;;;;;;;;;;;;;5134382;27;20373;-70
2021/10/22 11:54:41;;;;;;;;;;;;;;;;;;5134886;27;19924;-70
2021/10/22 11:57:07;;;;;;;;;;;;;;;;;;5134853;27;19923;-70
2021/10/22 11:59:33;;;;;;;;;;;;;;;;;;5134059;27;19923;-70
2021/10/22 12:02:00;;;;;;;;;;;;;;;;;;5134696;27;20014;-70
2021/10/22 12:04:26;;;;;;;;;;;;;;;;;;5134026;27;19923;-70
2021/10/22 12:06:53;;;;;;;;;;;;;;;;;;5134353;27;19959;-70
2021/10/22 12:09:19;;;;;;;;;;;;;;;;;;5134149;27;20301;-70
2021/10/22 12:11:45;;;;;;;;;;;;;;;;;;5134308;27;19929;-70
2021/10/22 12:14:12;;;;;;;;;;;;;;;;;;5134350;27;19930;-70
2021/10/22 12:16:38;;;;;;;;;;;;;;;;;;5134005;27;20485;-70
2021/10/22 12:19:04;;;;;;;;;;;;;;;;;;5134197;27;19923;-70
2021/10/22 12:21:31;;;;;;;;;;;;;;;;;;5134170;27;19927;-70
2021/10/22 12:23:57;;;;;;;;;;;;;;;;;;5133998;27;20377;-68
2021/10/22 12:26:23;;;;;;;;;;;;;;;;;;5134073;27;19924;-70
2021/10/22 12:28:49;;;;;;;;;;;;;;;;;;5134067;27;20011;-69
2021/10/22 12:31:16;;;;;;;;;;;;;;;;;;5134028;27;19950;-71
2021/10/22 12:33:43;;;;;;;;;;;;;;;;;;5134183;27;19934;-70
2021/10/22 12:36:12;;;;;;;;;;;;;;;;;;5133726;27;20413;-70
2021/10/22 12:38:38;;;;;;;;;;;;;;;;;;5133731;27;20017;-69
2021/10/22 12:41:06;;;;;;;;;;;;;;;;;;5134054;27;19947;-69
2021/10/22 12:43:32;;;;;;;;;;;;;;;;;;5133856;27;19928;-70
2021/10/22 12:45:58;;;;;;;;;;;;;;;;;;5133988;27;20377;-70
2021/10/22 12:48:24;;;;;;;;;;;;;;;;;;5133494;27;19924;-70
2021/10/22 12:50:51;;;;;;;;;;;;;;;;;;5133907;27;19930;-70
2021/10/22 12:53:19;;;;;;;;;;;;;;;;;;5133287;27;20394;-68
2021/10/22 12:55:45;;;;;;;;;;;;;;;;;;5133953;27;20018;-69
2021/10/22 12:58:11;;;;;;;;;;;;;;;;;;5133383;27;20275;-69
2021/10/22 13:00:38;;;;;;;;;;;;;;;;;;5133311;27;19923;-69
2021/10/22 13:03:04;;;;;;;;;;;;;;;;;;5133824;27;19929;-69
2021/10/22 13:05:31;;;;;;;;;;;;;;;;;;5133514;27;20299;-69
2021/10/22 13:07:58;;;;;;;;;;;;;;;;;;5133256;27;20323;-69
2021/10/22 13:10:30;;;;;;;;;;;;;;;;;;5133187;27;19923;-69
2021/10/22 13:13:02;;;;;;;;;;;;;;;;;;5133466;28;19949;-69
2021/10/22 13:20:56;;;;;;;;;;;;;;;;;;5133412;28;19923;-69
2021/10/22 13:23:22;;;;;;;;;;;;;;;;;;5133307;28;19930;-69
2021/10/22 13:25:49;;;;;;;;;;;;;;;;;;5133283;28;20370;-69
2021/10/22 13:28:17;;;;;;;;;;;;;;;;;;5132792;28;19924;-69
2021/10/22 13:30:45;;;;;;;;;;;;;;;;;;5133176;28;19931;-69
2021/10/22 13:33:16;;;;;;;;;;;;;;;;;;5132988;27;19928;-69
2021/10/22 13:35:42;;;;;;;;;;;;;;;;;;5133228;28;20370;-69
2021/10/22 13:38:10;;;;;;;;;;;;;;;;;;5133537;28;19923;-69
2021/10/22 13:40:36;;;;;;;;;;;;;;;;;;5133374;28;20053;-69
2021/10/22 13:43:02;;;;;;;;;;;;;;;;;;5132893;28;19923;-69
2021/10/22 13:45:29;;;;;;;;;;;;;;;;;;5133197;28;19923;-69
2021/10/22 13:47:55;;;;;;;;;;;;;;;;;;5133438;28;19924;-69
2021/10/22 13:50:21;;;;;;;;;;;;;;;;;;5133151;28;19923;-69
2021/10/22 13:52:48;;;;;;;;;;;;;;;;;;5132954;28;19930;-69
2021/10/22 13:55:14;;;;;;;;;;;;;;;;;;5132804;28;19924;-69
2021/10/22 13:57:40;;;;;;;;;;;;;;;;;;5132857;28;19928;-69
2021/10/22 14:00:08;;;;;;;;;;;;;;;;;;5132954;28;19937;-69
2021/10/22 14:02:34;;;;;;;;;;;;;;;;;;5132593;28;19984;-69
2021/10/22 14:05:01;;;;;;;;;;;;;;;;;;5132813;28;19924;-69
2021/10/22 14:07:27;;;;;;;;;;;;;;;;;;5132899;28;19931;-69
2021/10/22 14:09:54;;;;;;;;;;;;;;;;;;5133319;28;19946;-69
2021/10/22 14:12:23;;;;;;;;;;;;;;;;;;5132855;28;20301;-69
2021/10/22 14:14:54;;;;;;;;;;;;;;;;;;5132809;28;20293;-69
2021/10/22 14:17:41;;;;;;;;;;;;;;;;;;5132618;28;20452;-69
2021/10/22 14:20:14;;;;;;;;;;;;;;;;;;5133252;27;19927;-71
2021/10/22 14:30:51;;;;;;;;;;;;;;;;;;5136564;27;19954;-70
2021/10/22 14:33:18;;;;;;;;;;;;;;;;;;5136384;27;19924;-70
2021/10/22 14:35:44;;;;;;;;;;;;;;;;;;5136143;27;20392;-70
2021/10/22 14:38:10;;;;;;;;;;;;;;;;;;5135897;27;19949;-70
2021/10/22 14:40:37;;;;;;;;;;;;;;;;;;5136231;27;19960;-70
2021/10/22 14:43:05;;;;;;;;;;;;;;;;;;5135862;27;19923;-70
2021/10/22 14:45:40;;;;;;;;;;;;;;;;;;5136139;27;20266;-70
2021/10/22 14:48:09;;;;;;;;;;;;;;;;;;5136345;27;20274;-70
2021/10/22 14:50:39;;;;;;;;;;;;;;;;;;5136216;27;19973;-70
2021/10/22 14:53:16;;;;;;;;;;;;;;;;;;5136276;27;19931;-70
2021/10/22 14:55:47;;;;;;;;;;;;;;;;;;5135953;27;19967;-70
2021/10/22 14:58:13;;;;;;;;;;;;;;;;;;5135968;27;19923;-70
2021/10/22 15:00:40;;;;;;;;;;;;;;;;;;5135911;27;19924;-70
2021/10/22 15:03:07;;;;;;;;;;;;;;;;;;5136074;27;19924;-70
2021/10/22 15:05:34;;;;;;;;;;;;;;;;;;5135376;27;20385;-68
2021/10/22 15:08:00;;;;;;;;;;;;;;;;;;5135571;27;19984;-71
2021/10/22 15:10:26;;;;;;;;;;;;;;;;;;5135376;27;19923;-71
2021/10/22 15:12:53;;;;;;;;;;;;;;;;;;5135869;27;19923;-69
2021/10/22 15:15:19;;;;;;;;;;;;;;;;;;5135258;27;20296;-71
2021/10/22 15:17:46;;;;;;;;;;;;;;;;;;5135428;27;19929;-68
2021/10/22 15:20:12;;;;;;;;;;;;;;;;;;5135463;27;19931;-71
2021/10/22 15:22:38;;;;;;;;;;;;;;;;;;5135318;27;20387;-71
2021/10/22 15:25:05;;;;;;;;;;;;;;;;;;5135251;27;20015;-69
2021/10/22 15:27:31;;;;;;;;;;;;;;;;;;5135336;27;20146;-70
2021/10/22 15:29:57;;;;;;;;;;;;;;;;;;5135210;27;19923;-70
2021/10/22 15:32:24;;;;;;;;;;;;;;;;;;5134920;27;20023;-70
2021/10/22 15:34:50;;;;;;;;;;;;;;;;;;5135404;27;19924;-70
2021/10/22 15:37:17;;;;;;;;;;;;;;;;;;5134754;27;19929;-70
2021/10/22 15:39:43;;;;;;;;;;;;;;;;;;5135288;27;19931;-70
2021/10/22 15:42:09;;;;;;;;;;;;;;;;;;5134937;27;20277;-71
2021/10/22 15:44:36;;;;;;;;;;;;;;;;;;5134958;27;19923;-70
2021/10/22 15:47:03;;;;;;;;;;;;;;;;;;5135188;27;19936;-70
2021/10/22 15:49:29;;;;;;;;;;;;;;;;;;5135030;27;19983;-70
2021/10/22 15:51:55;;;;;;;;;;;;;;;;;;5135145;27;20389;-70
2021/10/22 15:54:22;;;;;;;;;;;;;;;;;;5134676;27;19934;-70
2021/10/22 15:56:48;;;;;;;;;;;;;;;;;;5135059;27;19930;-70
2021/10/22 15:59:15;;;;;;;;;;;;;;;;;;5134258;27;20373;-70
2021/10/22 16:01:42;;;;;;;;;;;;;;;;;;5134444;27;19934;-70
2021/10/22 16:04:12;;;;;;;;;;;;;;;;;;5134815;27;19930;-70
2021/10/22 16:06:45;;;;;;;;;;;;;;;;;;5134702;27;19927;-70
2021/10/22 16:09:22;;;;;;;;;;;;;;;;;;5134289;27;20022;-70
2021/10/22 16:11:50;;;;;;;;;;;;;;;;;;5134765;27;19970;-70
2021/10/22 16:14:40;;;;;;;;;;;;;;;;;;5134205;27;20379;-70
2021/10/22 16:17:08;;;;;;;;;;;;;;;;;;5134544;27;19936;-71
2021/10/22 16:19:34;;;;;;;;;;;;;;;;;;5134007;27;20393;-71
2021/10/22 16:22:00;;;;;;;;;;;;;;;;;;5134056;27;19936;-71
2021/10/22 16:24:27;;;;;;;;;;;;;;;;;;5133882;27;19923;-71
2021/10/22 16:26:53;;;;;;;;;;;;;;;;;;5134367;27;19924;-71
2021/10/22 16:29:21;;;;;;;;;;;;;;;;;;5134107;27;19946;-71
2021/10/22 16:31:47;;;;;;;;;;;;;;;;;;5134363;27;20328;-71
2021/10/22 16:36:57;;;;;;;;;;;;;;;;;;5134167;27;19935;-71
2021/10/22 16:39:23;;;;;;;;;;;;;;;;;;5133677;27;19923;-70
2021/10/22 16:41:50;;;;;;;;;;;;;;;;;;5134119;27;19976;-70
2021/10/22 16:44:16;;;;;;;;;;;;;;;;;;5133274;27;20431;-70
2021/10/22 16:46:43;;;;;;;;;;;;;;;;;;5133908;27;19930;-70
2021/10/22 16:49:09;;;;;;;;;;;;;;;;;;5133734;27;20426;-71
2021/10/22 16:51:36;;;;;;;;;;;;;;;;;;5134083;27;19993;-69
2021/10/22 16:54:04;;;;;;;;;;;;;;;;;;5133624;27;19931;-70
2021/10/22 16:56:31;;;;;;;;;;;;;;;;;;5133576;27;19980;-70
2021/10/22 16:58:57;;;;;;;;;;;;;;;;;;5133633;27;19924;-70
2021/10/22 17:01:23;;;;;;;;;;;;;;;;;;5133271;27;20373;-70